Time;durP1;ratioP1;P1;durP2;ratioP2;P2;SDS_P1;SDS_P2;PMS_P1;PMS_P2;Temp;Humidity;BMP_temperature;BMP_pressure;BME280_temperature;BME280_humidity;BME280_pressure;Samples;Min_cycle;Max_cycle;Signal;HPM_P1;HPM_P2
2023/06/20 00:01:16;;;;;;;9.03;7.97;;;;;;;;;;4959864;29;20467;-71
2023/06/20 00:03:45;;;;;;;8.23;6.77;;;;;;;;;;4959816;29;20556;-71
2023/06/20 00:06:15;;;;;;;8.87;7.57;;;;;;;;;;4958226;29;20454;-73
2023/06/20 00:08:42;;;;;;;7.73;6.93;;;;;;;;;;4956839;29;20446;-71
2023/06/20 00:11:11;;;;;;;8.87;7.10;;;;;;;;;;4957892;29;20477;-71
2023/06/20 00:13:42;;;;;;;9.60;6.73;;;;;;;;;;4957827;29;20459;-71
2023/06/20 00:16:13;;;;;;;9.23;8.33;;;;;;;;;;4957417;29;20458;-71
2023/06/20 00:18:53;;;;;;;9.20;6.43;;;;;;;;;;4957851;28;20466;-72
2023/06/20 00:21:25;;;;;;;8.80;7.90;;;;;;;;;;4958776;29;20532;-72
2023/06/20 00:23:53;;;;;;;13.53;8.40;;;;;;;;;;4959591;29;20708;-72
2023/06/20 00:56:11;;;;;;;13.30;7.90;;;;;;;;;;4995975;28;20524;-71
2023/06/20 00:58:39;;;;;;;9.57;8.40;;;;;;;;;;4997569;28;20444;-71
2023/06/20 01:01:07;;;;;;;9.73;7.90;;;;;;;;;;4995171;28;20460;-71
2023/06/20 01:03:36;;;;;;;9.67;7.73;;;;;;;;;;4992674;28;20459;-72
2023/06/20 01:06:11;;;;;;;9.83;8.80;;;;;;;;;;4989351;28;20496;-72
2023/06/20 01:09:04;;;;;;;9.77;8.70;;;;;;;;;;4990705;28;20547;-71
2023/06/20 01:11:39;;;;;;;13.70;8.47;;;;;;;;;;4990925;28;20729;-72
2023/06/20 01:14:13;;;;;;;13.17;9.27;;;;;;;;;;4990117;28;20491;-71
2023/06/20 01:16:44;;;;;;;14.10;10.03;;;;;;;;;;4991884;28;20448;-72
2023/06/20 01:19:21;;;;;;;11.60;8.60;;;;;;;;;;4993781;28;20457;-71
2023/06/20 01:21:52;;;;;;;9.33;7.53;;;;;;;;;;4995012;28;20464;-71
2023/06/20 01:24:24;;;;;;;10.83;7.60;;;;;;;;;;4995291;28;20456;-73
2023/06/20 01:26:59;;;;;;;10.47;9.10;;;;;;;;;;5008286;23;20508;-81
2023/06/20 01:29:32;;;;;;;9.77;8.20;;;;;;;;;;4990692;28;20864;-82
2023/06/20 01:32:04;;;;;;;11.07;9.37;;;;;;;;;;4990543;28;20460;-84
2023/06/20 01:34:32;;;;;;;12.10;8.30;;;;;;;;;;4990860;28;20493;-82
2023/06/20 01:37:01;;;;;;;11.07;9.07;;;;;;;;;;4991901;28;20465;-82
2023/06/20 01:39:31;;;;;;;9.60;8.17;;;;;;;;;;4991148;28;20516;-82
2023/06/20 01:42:00;;;;;;;10.40;9.03;;;;;;;;;;4991233;28;20461;-83
2023/06/20 01:44:29;;;;;;;9.40;7.37;;;;;;;;;;4989104;28;20440;-82
2023/06/20 01:46:58;;;;;;;8.83;7.93;;;;;;;;;;4983589;28;20468;-80
2023/06/20 01:49:25;;;;;;;10.50;9.40;;;;;;;;;;4983634;28;20474;-82
2023/06/20 01:54:31;;;;;;;9.80;8.60;;;;;;;;;;1478277;26;20473;-72
2023/06/20 01:56:59;;;;;;;9.80;8.80;;;;;;;;;;4978528;28;20479;-72
2023/06/20 01:59:28;;;;;;;10.73;8.60;;;;;;;;;;4978334;28;20699;-71
2023/06/20 02:01:56;;;;;;;10.43;8.23;;;;;;;;;;4976488;28;20461;-73
2023/06/20 02:04:27;;;;;;;10.50;8.80;;;;;;;;;;4974947;28;20556;-71
2023/06/20 02:06:55;;;;;;;11.20;8.50;;;;;;;;;;4973473;28;20461;-75
2023/06/20 02:09:23;;;;;;;9.73;8.73;;;;;;;;;;4973355;28;20481;-71
2023/06/20 02:11:53;;;;;;;12.40;9.13;;;;;;;;;;4973999;28;20449;-71
2023/06/20 02:14:22;;;;;;;9.63;8.50;;;;;;;;;;4974733;28;20579;-72
2023/06/20 02:16:52;;;;;;;10.83;9.20;;;;;;;;;;4976336;28;20446;-72
2023/06/20 02:19:23;;;;;;;11.30;9.27;;;;;;;;;;4976296;28;20465;-73
2023/06/20 02:21:56;;;;;;;9.23;8.20;;;;;;;;;;4982172;28;20457;-71
2023/06/20 02:24:26;;;;;;;11.47;8.40;;;;;;;;;;4976031;28;20459;-72
2023/06/20 02:26:55;;;;;;;11.17;9.03;;;;;;;;;;4991532;23;20496;-81
2023/06/20 02:29:27;;;;;;;9.87;7.83;;;;;;;;;;4989316;28;20440;-81
2023/06/20 02:31:56;;;;;;;10.73;8.73;;;;;;;;;;4981102;28;20472;-82
2023/06/20 02:34:27;;;;;;;11.07;8.63;;;;;;;;;;4981068;28;20493;-83
2023/06/20 02:36:57;;;;;;;11.03;8.80;;;;;;;;;;4986526;28;20453;-83
2023/06/20 02:39:25;;;;;;;13.37;9.33;;;;;;;;;;4983555;28;20454;-81
2023/06/20 02:41:54;;;;;;;9.97;8.17;;;;;;;;;;4984733;28;20472;-81
2023/06/20 02:44:22;;;;;;;11.17;9.53;;;;;;;;;;4986378;28;20453;-83
2023/06/20 02:46:57;;;;;;;12.33;9.33;;;;;;;;;;4992859;28;20453;-83
2023/06/20 02:49:26;;;;;;;12.63;9.50;;;;;;;;;;4990630;28;20496;-83
2023/06/20 02:57:06;;;;;;;11.13;8.53;;;;;;;;;;4979376;28;21015;-71
2023/06/20 02:59:34;;;;;;;11.30;9.63;;;;;;;;;;4979471;28;20628;-71
2023/06/20 03:02:07;;;;;;;11.63;9.50;;;;;;;;;;4979487;28;20531;-71
2023/06/20 03:04:35;;;;;;;10.53;9.23;;;;;;;;;;4977673;28;20482;-71
2023/06/20 03:07:03;;;;;;;12.70;10.30;;;;;;;;;;4976921;28;20532;-73
2023/06/20 03:09:31;;;;;;;15.63;8.80;;;;;;;;;;4972366;28;20728;-71
2023/06/20 03:11:59;;;;;;;10.10;9.10;;;;;;;;;;4973204;28;20577;-71
2023/06/20 03:14:29;;;;;;;12.07;10.20;;;;;;;;;;4975361;28;20476;-71
2023/06/20 03:16:56;;;;;;;14.77;10.83;;;;;;;;;;4975193;28;20875;-71
2023/06/20 03:19:24;;;;;;;14.03;9.57;;;;;;;;;;4975316;28;20731;-72
2023/06/20 03:21:51;;;;;;;12.90;10.47;;;;;;;;;;4973629;28;20455;-72
2023/06/20 03:24:24;;;;;;;11.63;9.90;;;;;;;;;;4975418;28;20540;-71
2023/06/20 03:53:53;;;;;;;11.87;10.53;;;;;;;;;;4307224;26;21052;-72
2023/06/20 03:56:20;;;;;;;13.50;9.83;;;;;;;;;;4976824;28;21055;-71
2023/06/20 03:58:50;;;;;;;10.43;9.27;;;;;;;;;;4976634;28;20563;-71
2023/06/20 04:01:24;;;;;;;12.93;10.10;;;;;;;;;;4976440;28;20446;-71
2023/06/20 04:03:52;;;;;;;12.40;9.33;;;;;;;;;;4975666;28;20778;-71
2023/06/20 04:06:20;;;;;;;11.33;9.37;;;;;;;;;;4973944;28;20732;-71
2023/06/20 04:11:53;;;;;;;11.47;9.93;;;;;;;;;;4973800;28;20411;-72
2023/06/20 04:14:20;;;;;;;11.17;10.07;;;;;;;;;;4974403;28;20465;-72
2023/06/20 04:16:49;;;;;;;10.80;9.70;;;;;;;;;;4974477;28;20484;-70
2023/06/20 04:19:19;;;;;;;11.77;9.50;;;;;;;;;;4973077;28;20464;-71
2023/06/20 04:21:47;;;;;;;13.80;11.20;;;;;;;;;;4974108;28;20465;-71
2023/06/20 04:24:15;;;;;;;13.87;11.63;;;;;;;;;;4972990;28;20573;-71
2023/06/20 04:29:22;;;;;;;14.43;10.03;;;;;;;;;;4326752;26;20481;-83
2023/06/20 04:31:52;;;;;;;10.60;9.10;;;;;;;;;;4983160;28;20457;-82
2023/06/20 04:34:23;;;;;;;12.30;9.33;;;;;;;;;;4987459;28;20889;-82
2023/06/20 04:36:51;;;;;;;13.23;10.83;;;;;;;;;;4982531;28;20489;-82
2023/06/20 04:39:18;;;;;;;14.17;9.63;;;;;;;;;;4980402;28;20497;-82
2023/06/20 04:41:46;;;;;;;26.03;9.57;;;;;;;;;;4986072;28;20884;-83
2023/06/20 04:44:21;;;;;;;9.90;7.93;;;;;;;;;;4986876;28;20445;-82
2023/06/20 04:46:50;;;;;;;10.40;8.87;;;;;;;;;;4983380;28;20495;-82
2023/06/20 04:49:17;;;;;;;10.77;8.63;;;;;;;;;;4981656;28;20446;-81
2023/06/20 04:54:13;;;;;;;10.87;9.20;;;;;;;;;;4975714;28;20477;-72
2023/06/20 04:56:41;;;;;;;10.37;9.27;;;;;;;;;;4976274;28;20508;-72
2023/06/20 04:59:11;;;;;;;11.13;8.60;;;;;;;;;;4978022;28;20469;-72
2023/06/20 05:01:39;;;;;;;9.23;8.30;;;;;;;;;;4978606;28;20552;-72
2023/06/20 05:04:08;;;;;;;13.43;8.20;;;;;;;;;;4976630;28;20468;-71
2023/06/20 05:06:36;;;;;;;9.93;8.30;;;;;;;;;;4976025;28;20464;-71
2023/06/20 05:09:04;;;;;;;22.87;12.47;;;;;;;;;;4974781;28;20469;-71
2023/06/20 05:11:32;;;;;;;10.77;8.60;;;;;;;;;;4975138;28;20573;-71
2023/06/20 05:14:00;;;;;;;12.70;9.10;;;;;;;;;;4973231;28;20557;-71
2023/06/20 05:16:28;;;;;;;10.03;9.03;;;;;;;;;;4972943;28;20546;-71
2023/06/20 05:18:57;;;;;;;10.87;8.30;;;;;;;;;;4971142;28;20469;-72
2023/06/20 05:21:27;;;;;;;15.70;11.10;;;;;;;;;;4967302;28;20461;-72
2023/06/20 05:23:57;;;;;;;9.50;7.87;;;;;;;;;;4967272;28;20468;-73
2023/06/20 05:31:32;;;;;;;12.13;7.73;;;;;;;;;;4985840;28;20548;-81
2023/06/20 05:34:00;;;;;;;9.20;7.27;;;;;;;;;;4985394;28;20467;-81
2023/06/20 05:36:28;;;;;;;9.70;7.10;;;;;;;;;;4984389;28;20485;-82
2023/06/20 05:38:58;;;;;;;9.70;8.17;;;;;;;;;;4985834;28;20469;-79
2023/06/20 05:41:25;;;;;;;9.50;8.47;;;;;;;;;;4985149;28;20460;-82
2023/06/20 05:43:53;;;;;;;10.00;7.10;;;;;;;;;;4985365;28;20525;-81
2023/06/20 05:46:20;;;;;;;10.20;8.00;;;;;;;;;;4983203;28;20545;-82
2023/06/20 05:48:49;;;;;;;14.80;8.60;;;;;;;;;;4983323;28;20466;-82
2023/06/20 05:56:29;;;;;;;8.03;7.23;;;;;;;;;;4930899;29;20498;-73
2023/06/20 05:59:00;;;;;;;8.50;7.60;;;;;;;;;;4934667;29;20538;-74
2023/06/20 06:01:33;;;;;;;7.93;6.20;;;;;;;;;;4930021;29;20466;-74
2023/06/20 06:04:02;;;;;;;7.90;6.60;;;;;;;;;;4927489;29;20462;-74
2023/06/20 06:06:32;;;;;;;7.90;6.70;;;;;;;;;;4929245;29;20570;-73
2023/06/20 06:09:08;;;;;;;10.80;8.00;;;;;;;;;;4930749;29;20562;-74
2023/06/20 06:11:46;;;;;;;10.30;7.17;;;;;;;;;;4934500;29;20455;-73
2023/06/20 06:14:19;;;;;;;11.03;7.13;;;;;;;;;;4931700;29;20770;-74
2023/06/20 06:16:47;;;;;;;7.70;6.50;;;;;;;;;;4926715;29;20490;-72
2023/06/20 06:19:21;;;;;;;8.13;6.13;;;;;;;;;;4926358;29;20631;-73
2023/06/20 06:21:49;;;;;;;6.90;6.13;;;;;;;;;;4929950;29;20533;-73
2023/06/20 06:24:22;;;;;;;7.87;6.60;;;;;;;;;;4930261;29;20771;-73
2023/06/20 06:57:05;;;;;;;6.97;6.17;;;;;;;;;;4987712;28;20930;-74
2023/06/20 06:59:32;;;;;;;12.40;6.90;;;;;;;;;;4979788;28;20768;-73
2023/06/20 07:02:15;;;;;;;10.70;6.30;;;;;;;;;;4978772;28;20448;-75
2023/06/20 07:04:49;;;;;;;9.50;5.73;;;;;;;;;;4990947;28;20440;-75
2023/06/20 07:07:17;;;;;;;7.97;5.80;;;;;;;;;;4990813;28;20480;-74
2023/06/20 07:09:51;;;;;;;8.27;6.43;;;;;;;;;;4990161;28;20472;-73
2023/06/20 07:12:26;;;;;;;6.87;5.70;;;;;;;;;;4971634;28;20453;-75
2023/06/20 07:15:29;;;;;;;7.87;5.40;;;;;;;;;;4986102;28;20472;-73
2023/06/20 07:23:49;;;;;;;7.70;6.00;;;;;;;;;;4945104;28;20574;-74
2023/06/20 07:29:05;;;;;;;6.57;5.17;;;;;;;;;;3320530;26;20473;-82
2023/06/20 07:31:32;;;;;;;8.20;5.70;;;;;;;;;;4981164;28;20446;-81
2023/06/20 07:34:00;;;;;;;7.40;5.97;;;;;;;;;;4967626;28;20498;-82
2023/06/20 07:36:27;;;;;;;6.77;5.73;;;;;;;;;;4983614;28;20481;-81
2023/06/20 07:38:55;;;;;;;5.27;4.77;;;;;;;;;;4989044;28;20476;-80
2023/06/20 07:41:22;;;;;;;9.03;5.67;;;;;;;;;;4989877;28;20461;-80
2023/06/20 07:43:50;;;;;;;6.80;5.20;;;;;;;;;;4991200;28;20461;-78
2023/06/20 07:46:18;;;;;;;7.10;5.73;;;;;;;;;;4988819;28;20453;-81
2023/06/20 07:48:47;;;;;;;12.47;6.77;;;;;;;;;;4987084;28;20438;-81
2023/06/20 07:56:27;;;;;;;8.33;6.43;;;;;;;;;;2986971;23;20536;-81
2023/06/20 07:58:56;;;;;;;8.27;5.90;;;;;;;;;;4988169;28;20469;-84
2023/06/20 08:01:27;;;;;;;6.47;5.60;;;;;;;;;;4985309;28;20454;-81
2023/06/20 08:03:54;;;;;;;7.03;5.00;;;;;;;;;;4972454;29;20600;-84
2023/06/20 08:06:22;;;;;;;6.73;5.23;;;;;;;;;;4972407;28;20513;-82
2023/06/20 08:11:54;;;;;;;7.27;5.57;;;;;;;;;;4987491;28;21580;-80
2023/06/20 08:14:21;;;;;;;7.63;5.80;;;;;;;;;;5003890;28;20444;-80
2023/06/20 08:16:50;;;;;;;7.73;5.33;;;;;;;;;;5012159;28;20483;-81
2023/06/20 08:19:20;;;;;;;7.50;5.40;;;;;;;;;;5011724;28;20452;-81
2023/06/20 08:21:47;;;;;;;9.00;5.20;;;;;;;;;;5011324;28;20542;-82
2023/06/20 08:24:21;;;;;;;9.80;5.60;;;;;;;;;;5008392;28;20499;-81
2023/06/20 08:26:49;;;;;;;7.00;4.20;;;;;;;;;;5011583;28;20462;-80
2023/06/20 08:29:22;;;;;;;8.70;5.97;;;;;;;;;;5013354;28;20452;-81
2023/06/20 08:31:51;;;;;;;8.87;5.50;;;;;;;;;;5017964;28;20460;-83
2023/06/20 08:34:22;;;;;;;11.33;5.90;;;;;;;;;;5013318;28;20524;-80
2023/06/20 08:36:53;;;;;;;9.03;5.80;;;;;;;;;;5007004;28;20493;-80
2023/06/20 08:39:21;;;;;;;8.00;5.93;;;;;;;;;;5007564;28;20544;-79
2023/06/20 08:41:51;;;;;;;9.03;6.57;;;;;;;;;;5009180;28;20479;-81
2023/06/20 08:47:15;;;;;;;8.10;5.20;;;;;;;;;;4986212;28;20510;-80
2023/06/20 08:49:44;;;;;;;7.53;6.00;;;;;;;;;;4988230;28;20461;-80
2023/06/20 09:28:16;;;;;;;9.07;6.70;;;;;;;;;;4961677;23;20472;-82
2023/06/20 09:30:47;;;;;;;15.00;6.70;;;;;;;;;;4988458;28;20627;-82
2023/06/20 09:33:15;;;;;;;12.63;7.70;;;;;;;;;;4987790;28;20461;-83
2023/06/20 09:35:52;;;;;;;11.43;7.53;;;;;;;;;;4986863;28;20528;-82
2023/06/20 09:38:33;;;;;;;17.73;7.50;;;;;;;;;;4991477;28;20460;-83
2023/06/20 09:41:01;;;;;;;10.50;7.63;;;;;;;;;;4988020;28;20521;-79
2023/06/20 09:43:30;;;;;;;13.90;7.67;;;;;;;;;;4995049;28;20454;-83
2023/06/20 09:46:01;;;;;;;11.33;6.83;;;;;;;;;;4988183;28;20457;-81
2023/06/20 09:48:32;;;;;;;13.17;7.70;;;;;;;;;;4980279;28;20461;-83
2023/06/20 09:56:29;;;;;;;;;;;;;;;;;;;;;
2023/06/20 10:18:16;;;;;;;13.30;8.00;;;;;;;;;;4973237;28;20504;-76
2023/06/20 10:21:14;;;;;;;9.50;6.83;;;;;;;;;;4990390;28;20464;-75
2023/06/20 12:14:37;;;;;;;11.10;7.00;;;;;;;;;;4971607;28;20495;-76
2023/06/20 12:17:12;;;;;;;7.40;6.10;;;;;;;;;;4974219;28;20564;-76
2023/06/20 12:19:52;;;;;;;10.50;6.93;;;;;;;;;;4975647;28;20453;-76
2023/06/20 12:22:21;;;;;;;9.30;6.47;;;;;;;;;;4973348;28;20453;-75
2023/06/20 12:24:54;;;;;;;9.83;7.80;;;;;;;;;;4974396;28;20453;-76
2023/06/20 13:16:15;;;;;;;8.10;5.90;;;;;;;;;;3891507;26;20496;-76
2023/06/20 13:19:10;;;;;;;8.50;5.80;;;;;;;;;;4983556;28;20465;-77
2023/06/20 14:24:21;;;;;;;10.87;6.97;;;;;;;;;;4970692;28;20281;-74
2023/06/20 14:47:40;;;;;;;8.30;5.63;;;;;;;;;;5423604;23;20976;-74
2023/06/20 14:50:24;;;;;;;7.87;6.27;;;;;;;;;;4978496;28;20464;-74
2023/06/20 14:52:55;;;;;;;10.30;6.70;;;;;;;;;;4982919;28;20573;-75
2023/06/20 14:55:36;;;;;;;7.87;5.90;;;;;;;;;;5900000;23;22221;-75
2023/06/20 14:58:06;;;;;;;7.27;5.93;;;;;;;;;;4968795;28;20481;-75
2023/06/20 15:00:44;;;;;;;10.20;6.60;;;;;;;;;;4961154;28;20514;-74
2023/06/20 15:12:47;;;;;;;15.30;6.40;;;;;;;;;;4958538;29;20477;-77
2023/06/20 15:15:31;;;;;;;8.90;7.23;;;;;;;;;;4971355;28;20457;-74
2023/06/20 15:18:04;;;;;;;10.93;5.90;;;;;;;;;;4974655;28;20495;-76
2023/06/20 15:20:35;;;;;;;9.53;6.47;;;;;;;;;;4976274;28;20445;-75
2023/06/20 15:23:07;;;;;;;7.50;5.57;;;;;;;;;;4979137;28;20553;-75
2023/06/20 15:25:42;;;;;;;7.50;6.33;;;;;;;;;;4978167;28;20957;-76
2023/06/20 15:30:45;;;;;;;10.33;6.13;;;;;;;;;;3328221;26;20484;-86
2023/06/20 15:33:15;;;;;;;7.50;6.60;;;;;;;;;;4994365;28;20480;-85
2023/06/20 15:35:46;;;;;;;7.40;6.17;;;;;;;;;;4994642;28;20548;-84
2023/06/20 15:38:15;;;;;;;9.07;6.73;;;;;;;;;;4984186;28;20501;-82
2023/06/20 15:40:45;;;;;;;7.93;6.57;;;;;;;;;;4983199;28;20450;-82
2023/06/20 15:43:13;;;;;;;7.23;6.20;;;;;;;;;;4981748;28;20597;-82
2023/06/20 15:45:45;;;;;;;8.07;5.97;;;;;;;;;;4983682;28;20493;-81
2023/06/20 15:48:14;;;;;;;9.90;6.70;;;;;;;;;;4986699;28;20835;-83
2023/06/20 15:50:42;;;;;;;8.20;6.60;;;;;;;;;;4986023;28;20568;-82
2023/06/20 15:53:13;;;;;;;8.50;6.60;;;;;;;;;;4975523;28;20458;-81
2023/06/20 15:55:40;;;;;;;7.20;6.13;;;;;;;;;;4964469;29;20465;-81
2023/06/20 15:58:09;;;;;;;7.30;5.03;;;;;;;;;;4962873;29;20514;-82
2023/06/20 16:00:37;;;;;;;8.07;7.10;;;;;;;;;;4965132;29;20474;-82
2023/06/20 16:03:05;;;;;;;7.27;6.00;;;;;;;;;;4972702;29;20470;-84
2023/06/20 16:05:33;;;;;;;7.70;5.83;;;;;;;;;;4972753;29;20477;-82
2023/06/20 16:08:02;;;;;;;7.97;7.17;;;;;;;;;;4972854;29;20526;-82
2023/06/20 16:22:03;;;;;;;8.10;6.50;;;;;;;;;;4976321;28;20541;-75
2023/06/20 16:24:38;;;;;;;6.43;5.33;;;;;;;;;;4978774;28;20446;-77
2023/06/20 16:29:34;;;;;;;6.67;5.97;;;;;;;;;;4983426;28;20544;-81
2023/06/20 16:32:06;;;;;;;7.90;7.10;;;;;;;;;;4987239;28;20520;-82
2023/06/20 16:34:33;;;;;;;7.40;5.90;;;;;;;;;;4986238;28;20545;-80
2023/06/20 16:37:00;;;;;;;10.93;6.77;;;;;;;;;;4983049;28;20476;-80
2023/06/20 16:39:35;;;;;;;8.30;6.40;;;;;;;;;;4985085;28;20834;-79
2023/06/20 16:42:06;;;;;;;6.90;5.93;;;;;;;;;;4991759;28;20749;-79
2023/06/20 16:44:40;;;;;;;6.97;6.00;;;;;;;;;;4988761;28;20453;-82
2023/06/20 16:47:11;;;;;;;8.27;6.50;;;;;;;;;;4985917;28;20473;-80
2023/06/20 16:49:39;;;;;;;7.70;6.90;;;;;;;;;;4989922;28;20455;-82
2023/06/20 16:52:09;;;;;;;6.23;5.63;;;;;;;;;;4988464;28;20500;-81
2023/06/20 16:54:44;;;;;;;8.03;6.60;;;;;;;;;;4993101;28;20481;-80
2023/06/20 16:57:15;;;;;;;11.33;7.87;;;;;;;;;;4997269;28;20502;-82
2023/06/20 16:59:42;;;;;;;6.07;5.47;;;;;;;;;;4984167;28;20573;-81
2023/06/20 17:02:13;;;;;;;7.30;6.50;;;;;;;;;;4983065;28;20480;-83
2023/06/20 17:04:42;;;;;;;6.90;6.20;;;;;;;;;;4986566;28;20449;-83
2023/06/20 17:07:10;;;;;;;9.03;7.10;;;;;;;;;;4989254;28;20438;-81
2023/06/20 17:15:10;;;;;;;6.13;5.20;;;;;;;;;;4997701;23;20493;-74
2023/06/20 17:17:42;;;;;;;6.23;5.30;;;;;;;;;;4978154;28;20225;-76
2023/06/20 17:20:14;;;;;;;6.83;6.13;;;;;;;;;;4974356;28;20992;-75
2023/06/20 17:23:00;;;;;;;7.03;6.33;;;;;;;;;;4968670;28;20750;-74
2023/06/20 17:25:28;;;;;;;6.13;5.53;;;;;;;;;;4954071;29;20764;-75
2023/06/20 17:30:32;;;;;;;8.83;6.80;;;;;;;;;;1470330;26;20489;-83
2023/06/20 17:33:01;;;;;;;7.20;5.57;;;;;;;;;;4979716;28;20964;-81
2023/06/20 17:35:29;;;;;;;7.23;6.30;;;;;;;;;;4981855;28;20448;-80
2023/06/20 17:37:57;;;;;;;7.10;5.70;;;;;;;;;;4982934;28;20500;-81
2023/06/20 17:40:25;;;;;;;6.60;5.53;;;;;;;;;;4981717;28;20526;-81
2023/06/20 17:42:55;;;;;;;6.57;5.87;;;;;;;;;;4973661;28;20494;-80
2023/06/20 17:45:24;;;;;;;6.90;6.10;;;;;;;;;;4991586;28;20455;-79
2023/06/20 17:48:00;;;;;;;8.87;6.13;;;;;;;;;;4978654;28;20461;-81
2023/06/20 17:50:38;;;;;;;7.80;6.33;;;;;;;;;;4970094;29;20538;-81
2023/06/20 17:56:24;;;;;;;7.67;6.80;;;;;;;;;;4912165;29;20930;-81
2023/06/20 17:58:54;;;;;;;7.73;6.20;;;;;;;;;;4966803;28;20538;-80
2023/06/20 18:01:25;;;;;;;6.30;5.70;;;;;;;;;;4982124;28;20462;-78
2023/06/20 18:03:53;;;;;;;8.03;6.00;;;;;;;;;;4978367;28;20642;-80
2023/06/20 18:06:23;;;;;;;7.60;6.10;;;;;;;;;;4961350;29;20745;-81
2023/06/20 18:11:55;;;;;;;6.50;5.63;;;;;;;;;;4972854;28;20416;-83
2023/06/20 18:14:34;;;;;;;6.00;5.07;;;;;;;;;;4984438;23;20524;-74
2023/06/20 18:17:02;;;;;;;6.10;5.50;;;;;;;;;;4992626;28;20453;-74
2023/06/20 18:19:31;;;;;;;6.90;5.77;;;;;;;;;;4988436;28;20587;-73
2023/06/20 18:22:08;;;;;;;6.70;5.97;;;;;;;;;;4992477;28;20468;-73
2023/06/20 18:24:58;;;;;;;6.80;6.07;;;;;;;;;;4991799;28;20532;-73
2023/06/20 18:30:02;;;;;;;8.23;6.33;;;;;;;;;;1455197;26;20794;-83
2023/06/20 18:32:33;;;;;;;7.70;6.50;;;;;;;;;;4940919;29;20457;-82
2023/06/20 18:35:01;;;;;;;7.10;5.87;;;;;;;;;;4926883;29;20452;-80
2023/06/20 18:37:33;;;;;;;7.00;6.27;;;;;;;;;;4928236;29;20444;-82
2023/06/20 18:40:06;;;;;;;7.17;6.03;;;;;;;;;;4932811;29;20436;-83
2023/06/20 18:42:34;;;;;;;14.93;6.90;;;;;;;;;;4934380;29;20470;-83
2023/06/20 18:45:04;;;;;;;8.27;6.50;;;;;;;;;;4940863;29;20577;-83
2023/06/20 18:47:34;;;;;;;7.00;6.30;;;;;;;;;;4945765;29;20460;-78
2023/06/20 18:50:05;;;;;;;11.20;7.20;;;;;;;;;;4932992;29;20488;-80
2023/06/20 18:52:37;;;;;;;7.83;5.23;;;;;;;;;;4935641;29;20523;-81
2023/06/20 18:55:06;;;;;;;8.93;6.13;;;;;;;;;;4933375;29;20440;-79
2023/06/20 18:57:35;;;;;;;7.50;6.23;;;;;;;;;;4944947;29;20486;-79
2023/06/20 19:00:07;;;;;;;7.50;6.20;;;;;;;;;;4952206;29;20487;-80
2023/06/20 19:02:35;;;;;;;6.10;5.43;;;;;;;;;;4950289;29;20828;-82
2023/06/20 19:05:03;;;;;;;6.33;5.73;;;;;;;;;;4944707;29;20462;-80
2023/06/20 19:07:31;;;;;;;6.77;5.23;;;;;;;;;;4946273;29;20786;-82
2023/06/20 19:13:05;;;;;;;7.20;6.07;;;;;;;;;;4964676;28;20451;-81
2023/06/20 19:15:37;;;;;;;6.47;5.20;;;;;;;;;;4985842;23;21209;-73
2023/06/20 19:18:17;;;;;;;7.13;5.47;;;;;;;;;;4974606;28;20496;-72
2023/06/20 19:20:46;;;;;;;6.57;5.37;;;;;;;;;;4974033;28;21087;-73
2023/06/20 19:23:14;;;;;;;7.90;5.30;;;;;;;;;;4964990;28;20458;-73
2023/06/20 19:25:44;;;;;;;6.07;5.47;;;;;;;;;;4978846;28;21037;-73
2023/06/20 19:28:13;;;;;;;9.17;5.87;;;;;;;;;;4987460;23;20485;-83
2023/06/20 19:30:42;;;;;;;6.63;5.57;;;;;;;;;;4977204;28;20505;-83
2023/06/20 19:33:10;;;;;;;6.27;5.67;;;;;;;;;;4993130;28;20465;-82
2023/06/20 19:35:38;;;;;;;7.67;6.30;;;;;;;;;;4993781;28;20480;-81
2023/06/20 19:38:06;;;;;;;6.60;5.37;;;;;;;;;;4988622;28;20485;-83
2023/06/20 19:40:34;;;;;;;6.90;6.20;;;;;;;;;;4974163;28;20507;-81
2023/06/20 19:43:03;;;;;;;8.07;6.37;;;;;;;;;;4993880;28;20464;-83
2023/06/20 19:45:34;;;;;;;6.27;5.67;;;;;;;;;;4994070;28;20493;-83
2023/06/20 19:48:04;;;;;;;6.83;5.63;;;;;;;;;;4988025;28;20458;-82
2023/06/20 19:50:32;;;;;;;6.90;6.30;;;;;;;;;;4972144;28;20528;-82
2023/06/20 19:53:07;;;;;;;6.83;5.90;;;;;;;;;;4995225;28;20473;-84
2023/06/20 19:55:40;;;;;;;7.20;6.00;;;;;;;;;;4987093;28;20556;-83
2023/06/20 19:58:09;;;;;;;6.80;5.90;;;;;;;;;;4975614;28;20550;-85
2023/06/20 20:00:51;;;;;;;7.60;6.60;;;;;;;;;;4977551;28;20522;-82
2023/06/20 20:03:28;;;;;;;6.70;5.97;;;;;;;;;;4971539;29;20458;-81
2023/06/20 20:06:00;;;;;;;6.50;5.40;;;;;;;;;;4988511;28;20453;-84
2023/06/20 20:16:28;;;;;;;6.67;5.97;;;;;;;;;;4972598;28;20214;-74
2023/06/20 20:18:59;;;;;;;8.03;6.40;;;;;;;;;;4972962;28;20500;-74
2023/06/20 20:21:33;;;;;;;6.50;5.90;;;;;;;;;;4972217;28;20458;-73
2023/06/20 20:24:07;;;;;;;6.83;6.13;;;;;;;;;;4972323;28;20552;-75
2023/06/20 21:00:08;;;;;;;8.47;6.57;;;;;;;;;;5647390;23;20716;-72
2023/06/20 21:02:37;;;;;;;6.83;6.13;;;;;;;;;;4960538;28;20481;-74
2023/06/20 21:05:05;;;;;;;7.80;7.00;;;;;;;;;;4968113;28;21385;-74
2023/06/20 21:07:35;;;;;;;10.60;7.70;;;;;;;;;;4958995;28;20464;-73
2023/06/20 21:10:03;;;;;;;8.13;7.33;;;;;;;;;;4951584;28;20454;-73
2023/06/20 21:12:31;;;;;;;8.20;7.07;;;;;;;;;;4952317;29;20498;-74
2023/06/20 21:15:02;;;;;;;8.07;7.33;;;;;;;;;;4952067;29;20786;-73
2023/06/20 21:17:30;;;;;;;8.50;6.80;;;;;;;;;;4951355;29;20453;-72
2023/06/20 21:20:05;;;;;;;8.30;7.50;;;;;;;;;;4952459;29;20592;-73
2023/06/20 21:22:42;;;;;;;7.90;7.00;;;;;;;;;;4954097;29;20731;-71
2023/06/20 21:25:20;;;;;;;8.43;7.63;;;;;;;;;;4953595;29;20702;-71
2023/06/20 21:27:48;;;;;;;9.20;8.20;;;;;;;;;;4983591;23;20932;-83
2023/06/20 21:30:18;;;;;;;8.30;7.40;;;;;;;;;;4984247;28;20499;-83
2023/06/20 21:32:48;;;;;;;8.20;7.40;;;;;;;;;;4984992;28;20454;-81
2023/06/20 21:35:16;;;;;;;8.43;7.50;;;;;;;;;;4983442;28;20520;-84
2023/06/20 21:37:44;;;;;;;8.73;7.83;;;;;;;;;;4986736;28;20444;-83
2023/06/20 21:40:15;;;;;;;11.77;7.80;;;;;;;;;;4990240;28;20516;-84
2023/06/20 21:42:42;;;;;;;8.23;7.43;;;;;;;;;;4989380;28;20456;-84
2023/06/20 21:45:10;;;;;;;13.83;8.50;;;;;;;;;;4980987;28;20737;-83
2023/06/20 21:47:39;;;;;;;9.77;8.47;;;;;;;;;;4984552;28;20561;-83
2023/06/20 21:50:10;;;;;;;9.40;8.03;;;;;;;;;;4991472;28;20477;-84
2023/06/20 21:52:38;;;;;;;9.73;8.80;;;;;;;;;;4993571;28;20473;-83
2023/06/20 21:55:05;;;;;;;8.77;7.87;;;;;;;;;;4986880;28;20496;-81
2023/06/20 21:57:35;;;;;;;10.03;8.40;;;;;;;;;;4986680;28;20453;-80
2023/06/20 22:00:07;;;;;;;9.07;8.17;;;;;;;;;;4985014;28;20488;-82
2023/06/20 22:02:34;;;;;;;9.53;8.47;;;;;;;;;;4992383;28;20475;-83
2023/06/20 22:05:03;;;;;;;9.73;7.97;;;;;;;;;;4993231;28;20457;-83
2023/06/20 22:07:31;;;;;;;10.23;8.93;;;;;;;;;;4992294;28;20514;-85
2023/06/20 22:13:02;;;;;;;9.90;8.90;;;;;;;;;;5003008;28;20459;-83
2023/06/20 22:15:30;;;;;;;9.60;8.60;;;;;;;;;;4998936;23;20531;-74
2023/06/20 22:17:58;;;;;;;9.07;8.20;;;;;;;;;;4982675;28;20465;-72
2023/06/20 22:20:28;;;;;;;10.43;8.70;;;;;;;;;;4983748;28;20493;-72
2023/06/20 22:22:55;;;;;;;9.73;8.17;;;;;;;;;;4976020;28;20542;-72
2023/06/20 22:25:23;;;;;;;10.13;9.17;;;;;;;;;;4976483;28;20808;-73
2023/06/20 23:16:29;;;;;;;12.00;10.90;;;;;;;;;;4977610;28;20827;-72
2023/06/20 23:19:00;;;;;;;12.03;10.90;;;;;;;;;;4977659;28;20960;-71
2023/06/20 23:21:30;;;;;;;11.30;9.90;;;;;;;;;;4978438;28;20560;-71
2023/06/20 23:24:03;;;;;;;11.60;10.43;;;;;;;;;;4977759;28;20472;-72
2023/06/20 23:49:57;;;;;;;4.50;3.50;;;;;;;;;;5214076;23;20613;-72
2023/06/20 23:54:59;;;;;;;5.80;3.30;;;;;;;;;;4976528;28;20508;-73
2023/06/20 23:57:27;;;;;;;5.40;2.80;;;;;;;;;;4973654;28;20488;-73
